sensor_id;sensor_type;location;lat;lon;timestamp;P1;durP1;ratioP1;P2;durP2;ratioP2
71288;SDS011;59068;52.502;9.860;2022-08-19T00:01:38;8.93;;;7.93;;
71288;SDS011;59068;52.502;9.860;2022-08-19T00:04:06;8.67;;;7.67;;
71288;SDS011;59068;52.502;9.860;2022-08-19T00:06:33;9.83;;;7.87;;
71288;SDS011;59068;52.502;9.860;2022-08-19T00:08:58;9.70;;;8.50;;
71288;SDS011;59068;52.502;9.860;2022-08-19T00:11:25;8.80;;;7.27;;
71288;SDS011;59068;52.502;9.860;2022-08-19T00:13:52;10.17;;;8.03;;
71288;SDS011;59068;52.502;9.860;2022-08-19T00:16:18;10.13;;;8.10;;
71288;SDS011;59068;52.502;9.860;2022-08-19T00:18:45;8.67;;;7.83;;
71288;SDS011;59068;52.502;9.860;2022-08-19T00:21:11;9.63;;;8.00;;
71288;SDS011;59068;52.502;9.860;2022-08-19T00:23:37;10.60;;;8.00;;
71288;SDS011;59068;52.502;9.860;2022-08-19T00:26:05;8.53;;;7.70;;
71288;SDS011;59068;52.502;9.860;2022-08-19T00:28:32;9.43;;;8.53;;
71288;SDS011;59068;52.502;9.860;2022-08-19T00:31:00;10.03;;;8.70;;
71288;SDS011;59068;52.502;9.860;2022-08-19T00:33:26;8.73;;;7.93;;
71288;SDS011;59068;52.502;9.860;2022-08-19T00:35:52;10.13;;;9.00;;
71288;SDS011;59068;52.502;9.860;2022-08-19T00:38:17;10.47;;;8.40;;
71288;SDS011;59068;52.502;9.860;2022-08-19T00:40:45;9.80;;;8.90;;
71288;SDS011;59068;52.502;9.860;2022-08-19T00:43:12;9.90;;;8.90;;
71288;SDS011;59068;52.502;9.860;2022-08-19T00:45:38;11.83;;;9.23;;
71288;SDS011;59068;52.502;9.860;2022-08-19T00:48:06;10.67;;;9.30;;
71288;SDS011;59068;52.502;9.860;2022-08-19T00:50:32;9.70;;;8.80;;
71288;SDS011;59068;52.502;9.860;2022-08-19T00:52:58;9.07;;;8.27;;
71288;SDS011;59068;52.502;9.860;2022-08-19T00:55:25;8.97;;;8.17;;
71288;SDS011;59068;52.502;9.860;2022-08-19T00:58:01;9.43;;;8.57;;
71288;SDS011;59068;52.502;9.860;2022-08-19T01:00:30;10.70;;;8.97;;
71288;SDS011;59068;52.502;9.860;2022-08-19T01:02:56;10.20;;;9.10;;
71288;SDS011;59068;52.502;9.860;2022-08-19T01:05:23;10.03;;;9.13;;
71288;SDS011;59068;52.502;9.860;2022-08-19T01:07:53;9.53;;;8.63;;
71288;SDS011;59068;52.502;9.860;2022-08-19T01:10:20;10.03;;;8.80;;
71288;SDS011;59068;52.502;9.860;2022-08-19T01:12:49;9.27;;;8.57;;
71288;SDS011;59068;52.502;9.860;2022-08-19T01:15:17;10.53;;;8.33;;
71288;SDS011;59068;52.502;9.860;2022-08-19T01:17:45;9.43;;;8.53;;
71288;SDS011;59068;52.502;9.860;2022-08-19T01:20:12;10.47;;;8.77;;
71288;SDS011;59068;52.502;9.860;2022-08-19T01:22:42;10.50;;;8.63;;
71288;SDS011;59068;52.502;9.860;2022-08-19T01:25:10;9.50;;;8.57;;
71288;SDS011;59068;52.502;9.860;2022-08-19T01:27:39;9.83;;;8.90;;
71288;SDS011;59068;52.502;9.860;2022-08-19T01:30:06;10.30;;;8.37;;
71288;SDS011;59068;52.502;9.860;2022-08-19T01:32:32;9.70;;;8.50;;
71288;SDS011;59068;52.502;9.860;2022-08-19T01:34:57;10.33;;;8.57;;
71288;SDS011;59068;52.502;9.860;2022-08-19T01:37:24;9.23;;;8.33;;
71288;SDS011;59068;52.502;9.860;2022-08-19T01:39:49;9.43;;;8.63;;
71288;SDS011;59068;52.502;9.860;2022-08-19T01:42:15;9.23;;;8.43;;
71288;SDS011;59068;52.502;9.860;2022-08-19T01:44:40;9.67;;;8.77;;
71288;SDS011;59068;52.502;9.860;2022-08-19T01:47:06;9.20;;;8.40;;
71288;SDS011;59068;52.502;9.860;2022-08-19T01:49:33;8.83;;;8.03;;
71288;SDS011;59068;52.502;9.860;2022-08-19T01:51:59;9.80;;;8.90;;
71288;SDS011;59068;52.502;9.860;2022-08-19T01:54:24;10.30;;;8.97;;
71288;SDS011;59068;52.502;9.860;2022-08-19T01:56:51;9.87;;;8.93;;
71288;SDS011;59068;52.502;9.860;2022-08-19T01:59:19;9.10;;;8.30;;
71288;SDS011;59068;52.502;9.860;2022-08-19T02:01:45;10.17;;;8.10;;
71288;SDS011;59068;52.502;9.860;2022-08-19T02:04:10;9.70;;;8.73;;
71288;SDS011;59068;52.502;9.860;2022-08-19T02:06:36;10.47;;;9.57;;
71288;SDS011;59068;52.502;9.860;2022-08-19T02:09:02;10.30;;;9.30;;
71288;SDS011;59068;52.502;9.860;2022-08-19T02:11:31;9.97;;;8.80;;
71288;SDS011;59068;52.502;9.860;2022-08-19T02:13:59;10.70;;;9.80;;
71288;SDS011;59068;52.502;9.860;2022-08-19T02:16:26;11.47;;;10.30;;
71288;SDS011;59068;52.502;9.860;2022-08-19T02:18:52;11.03;;;9.93;;
71288;SDS011;59068;52.502;9.860;2022-08-19T02:21:18;11.43;;;9.90;;
71288;SDS011;59068;52.502;9.860;2022-08-19T02:23:45;12.77;;;11.43;;
71288;SDS011;59068;52.502;9.860;2022-08-19T02:26:10;11.90;;;10.70;;
71288;SDS011;59068;52.502;9.860;2022-08-19T02:28:37;11.93;;;10.73;;
71288;SDS011;59068;52.502;9.860;2022-08-19T02:31:07;12.63;;;11.30;;
71288;SDS011;59068;52.502;9.860;2022-08-19T02:33:34;13.93;;;11.13;;
71288;SDS011;59068;52.502;9.860;2022-08-19T02:36:02;11.67;;;10.53;;
71288;SDS011;59068;52.502;9.860;2022-08-19T02:38:29;12.57;;;11.47;;
71288;SDS011;59068;52.502;9.860;2022-08-19T02:41:05;13.20;;;11.87;;
71288;SDS011;59068;52.502;9.860;2022-08-19T02:43:34;13.93;;;11.33;;
71288;SDS011;59068;52.502;9.860;2022-08-19T02:46:23;11.63;;;10.50;;
71288;SDS011;59068;52.502;9.860;2022-08-19T02:48:52;13.03;;;11.20;;
71288;SDS011;59068;52.502;9.860;2022-08-19T02:51:21;11.90;;;10.37;;
71288;SDS011;59068;52.502;9.860;2022-08-19T02:53:48;12.30;;;11.00;;
71288;SDS011;59068;52.502;9.860;2022-08-19T02:56:14;12.63;;;11.40;;
71288;SDS011;59068;52.502;9.860;2022-08-19T02:58:40;14.37;;;11.50;;
71288;SDS011;59068;52.502;9.860;2022-08-19T03:01:06;13.90;;;11.00;;
71288;SDS011;59068;52.502;9.860;2022-08-19T03:03:32;13.20;;;10.80;;
71288;SDS011;59068;52.502;9.860;2022-08-19T03:06:04;11.77;;;10.57;;
71288;SDS011;59068;52.502;9.860;2022-08-19T03:08:35;12.23;;;10.90;;
71288;SDS011;59068;52.502;9.860;2022-08-19T03:11:00;13.13;;;11.60;;
71288;SDS011;59068;52.502;9.860;2022-08-19T03:13:26;12.90;;;11.53;;
71288;SDS011;59068;52.502;9.860;2022-08-19T03:15:51;12.30;;;11.10;;
71288;SDS011;59068;52.502;9.860;2022-08-19T03:18:17;13.17;;;11.90;;
71288;SDS011;59068;52.502;9.860;2022-08-19T03:20:43;12.20;;;10.80;;
71288;SDS011;59068;52.502;9.860;2022-08-19T03:23:10;12.60;;;11.30;;
71288;SDS011;59068;52.502;9.860;2022-08-19T03:25:40;12.93;;;11.57;;
71288;SDS011;59068;52.502;9.860;2022-08-19T03:28:08;13.57;;;11.33;;
71288;SDS011;59068;52.502;9.860;2022-08-19T03:30:39;12.13;;;11.03;;
71288;SDS011;59068;52.502;9.860;2022-08-19T03:33:05;12.20;;;11.00;;
71288;SDS011;59068;52.502;9.860;2022-08-19T03:35:31;13.13;;;11.43;;
71288;SDS011;59068;52.502;9.860;2022-08-19T03:37:58;11.47;;;10.30;;
71288;SDS011;59068;52.502;9.860;2022-08-19T03:40:24;12.23;;;11.07;;
71288;SDS011;59068;52.502;9.860;2022-08-19T03:42:50;11.97;;;10.63;;
71288;SDS011;59068;52.502;9.860;2022-08-19T03:45:15;11.77;;;10.50;;
71288;SDS011;59068;52.502;9.860;2022-08-19T03:47:41;11.80;;;10.67;;
71288;SDS011;59068;52.502;9.860;2022-08-19T03:50:06;12.47;;;10.30;;
71288;SDS011;59068;52.502;9.860;2022-08-19T03:52:33;11.37;;;10.37;;
71288;SDS011;59068;52.502;9.860;2022-08-19T03:54:59;11.37;;;10.27;;
71288;SDS011;59068;52.502;9.860;2022-08-19T03:57:24;10.63;;;9.20;;
71288;SDS011;59068;52.502;9.860;2022-08-19T03:59:49;11.93;;;10.10;;
71288;SDS011;59068;52.502;9.860;2022-08-19T04:02:15;11.53;;;9.43;;
71288;SDS011;59068;52.502;9.860;2022-08-19T04:04:42;11.33;;;10.13;;
71288;SDS011;59068;52.502;9.860;2022-08-19T04:07:08;10.57;;;9.50;;
71288;SDS011;59068;52.502;9.860;2022-08-19T04:09:34;10.27;;;9.27;;
71288;SDS011;59068;52.502;9.860;2022-08-19T04:12:01;10.73;;;9.57;;
71288;SDS011;59068;52.502;9.860;2022-08-19T04:14:30;9.63;;;8.67;;
71288;SDS011;59068;52.502;9.860;2022-08-19T04:16:56;10.23;;;9.33;;
71288;SDS011;59068;52.502;9.860;2022-08-19T04:19:23;10.43;;;9.50;;
71288;SDS011;59068;52.502;9.860;2022-08-19T04:21:49;11.43;;;9.27;;
71288;SDS011;59068;52.502;9.860;2022-08-19T04:24:15;11.47;;;9.30;;
71288;SDS011;59068;52.502;9.860;2022-08-19T04:26:41;10.83;;;9.83;;
71288;SDS011;59068;52.502;9.860;2022-08-19T04:29:16;11.20;;;9.97;;
71288;SDS011;59068;52.502;9.860;2022-08-19T04:31:44;10.50;;;9.60;;
71288;SDS011;59068;52.502;9.860;2022-08-19T04:34:10;10.97;;;9.90;;
71288;SDS011;59068;52.502;9.860;2022-08-19T04:36:37;11.13;;;10.03;;
71288;SDS011;59068;52.502;9.860;2022-08-19T04:39:06;10.23;;;9.23;;
71288;SDS011;59068;52.502;9.860;2022-08-19T04:41:33;12.40;;;9.73;;
71288;SDS011;59068;52.502;9.860;2022-08-19T04:44:17;11.97;;;9.30;;
71288;SDS011;59068;52.502;9.860;2022-08-19T04:46:43;11.23;;;10.27;;
71288;SDS011;59068;52.502;9.860;2022-08-19T04:49:09;11.13;;;10.00;;
71288;SDS011;59068;52.502;9.860;2022-08-19T04:51:35;10.77;;;9.20;;
71288;SDS011;59068;52.502;9.860;2022-08-19T04:54:02;10.70;;;9.70;;
71288;SDS011;59068;52.502;9.860;2022-08-19T04:56:28;10.73;;;9.73;;
71288;SDS011;59068;52.502;9.860;2022-08-19T04:58:54;11.50;;;9.77;;
71288;SDS011;59068;52.502;9.860;2022-08-19T05:01:24;11.30;;;10.17;;
71288;SDS011;59068;52.502;9.860;2022-08-19T05:03:53;11.83;;;10.30;;
71288;SDS011;59068;52.502;9.860;2022-08-19T05:06:18;10.97;;;9.97;;
71288;SDS011;59068;52.502;9.860;2022-08-19T05:08:44;10.33;;;9.27;;
71288;SDS011;59068;52.502;9.860;2022-08-19T05:11:11;10.83;;;9.83;;
71288;SDS011;59068;52.502;9.860;2022-08-19T05:13:37;11.00;;;9.93;;
71288;SDS011;59068;52.502;9.860;2022-08-19T05:16:03;11.77;;;10.53;;
71288;SDS011;59068;52.502;9.860;2022-08-19T05:18:28;14.70;;;11.77;;
71288;SDS011;59068;52.502;9.860;2022-08-19T05:21:14;12.80;;;10.73;;
71288;SDS011;59068;52.502;9.860;2022-08-19T05:24:00;12.50;;;11.30;;
71288;SDS011;59068;52.502;9.860;2022-08-19T05:26:26;13.30;;;11.07;;
71288;SDS011;59068;52.502;9.860;2022-08-19T05:28:52;12.33;;;11.20;;
71288;SDS011;59068;52.502;9.860;2022-08-19T05:31:18;11.37;;;9.87;;
71288;SDS011;59068;52.502;9.860;2022-08-19T05:33:43;12.73;;;11.60;;
71288;SDS011;59068;52.502;9.860;2022-08-19T05:36:09;12.70;;;11.47;;
71288;SDS011;59068;52.502;9.860;2022-08-19T05:38:34;12.67;;;11.10;;
71288;SDS011;59068;52.502;9.860;2022-08-19T05:41:01;13.43;;;11.20;;
71288;SDS011;59068;52.502;9.860;2022-08-19T05:43:32;12.27;;;11.07;;
71288;SDS011;59068;52.502;9.860;2022-08-19T05:45:57;12.00;;;10.80;;
71288;SDS011;59068;52.502;9.860;2022-08-19T05:48:23;10.43;;;9.40;;
71288;SDS011;59068;52.502;9.860;2022-08-19T05:50:48;12.17;;;10.97;;
71288;SDS011;59068;52.502;9.860;2022-08-19T05:53:15;11.97;;;10.60;;
71288;SDS011;59068;52.502;9.860;2022-08-19T05:55:41;12.17;;;10.93;;
71288;SDS011;59068;52.502;9.860;2022-08-19T05:58:06;11.63;;;10.47;;
71288;SDS011;59068;52.502;9.860;2022-08-19T06:00:32;12.93;;;10.87;;
71288;SDS011;59068;52.502;9.860;2022-08-19T06:02:58;11.80;;;10.43;;
71288;SDS011;59068;52.502;9.860;2022-08-19T06:05:28;11.07;;;9.97;;
71288;SDS011;59068;52.502;9.860;2022-08-19T06:07:54;11.87;;;10.77;;
71288;SDS011;59068;52.502;9.860;2022-08-19T06:10:19;12.23;;;10.20;;
71288;SDS011;59068;52.502;9.860;2022-08-19T06:12:46;11.37;;;10.27;;
71288;SDS011;59068;52.502;9.860;2022-08-19T06:15:12;12.33;;;11.13;;
71288;SDS011;59068;52.502;9.860;2022-08-19T06:17:38;11.73;;;10.53;;
71288;SDS011;59068;52.502;9.860;2022-08-19T06:20:08;12.23;;;10.90;;
71288;SDS011;59068;52.502;9.860;2022-08-19T06:22:44;11.97;;;10.67;;
71288;SDS011;59068;52.502;9.860;2022-08-19T06:25:11;12.60;;;10.40;;
71288;SDS011;59068;52.502;9.860;2022-08-19T06:27:37;13.73;;;10.37;;
71288;SDS011;59068;52.502;9.860;2022-08-19T06:30:03;11.97;;;10.77;;
71288;SDS011;59068;52.502;9.860;2022-08-19T06:32:30;11.47;;;10.30;;
71288;SDS011;59068;52.502;9.860;2022-08-19T06:34:55;12.80;;;11.60;;
71288;SDS011;59068;52.502;9.860;2022-08-19T06:37:21;12.43;;;11.13;;
71288;SDS011;59068;52.502;9.860;2022-08-19T06:39:47;12.53;;;11.03;;
71288;SDS011;59068;52.502;9.860;2022-08-19T06:42:13;12.17;;;10.60;;
71288;SDS011;59068;52.502;9.860;2022-08-19T06:44:42;11.97;;;10.77;;
71288;SDS011;59068;52.502;9.860;2022-08-19T06:47:10;12.27;;;11.07;;
71288;SDS011;59068;52.502;9.860;2022-08-19T06:49:37;12.13;;;10.77;;
71288;SDS011;59068;52.502;9.860;2022-08-19T06:52:02;12.30;;;10.80;;
71288;SDS011;59068;52.502;9.860;2022-08-19T06:54:28;11.57;;;10.33;;
71288;SDS011;59068;52.502;9.860;2022-08-19T06:56:57;12.57;;;10.57;;
71288;SDS011;59068;52.502;9.860;2022-08-19T06:59:24;13.20;;;11.53;;
71288;SDS011;59068;52.502;9.860;2022-08-19T07:01:53;12.73;;;11.20;;
71288;SDS011;59068;52.502;9.860;2022-08-19T07:04:21;12.07;;;10.87;;
71288;SDS011;59068;52.502;9.860;2022-08-19T07:06:49;11.90;;;10.70;;
71288;SDS011;59068;52.502;9.860;2022-08-19T07:09:15;12.87;;;11.57;;
71288;SDS011;59068;52.502;9.860;2022-08-19T07:11:46;12.67;;;11.47;;
71288;SDS011;59068;52.502;9.860;2022-08-19T07:14:12;11.40;;;10.20;;
71288;SDS011;59068;52.502;9.860;2022-08-19T07:16:39;12.13;;;10.30;;
71288;SDS011;59068;52.502;9.860;2022-08-19T07:19:04;12.30;;;10.93;;
71288;SDS011;59068;52.502;9.860;2022-08-19T07:21:30;12.17;;;10.67;;
71288;SDS011;59068;52.502;9.860;2022-08-19T07:23:56;12.23;;;10.93;;
71288;SDS011;59068;52.502;9.860;2022-08-19T07:26:23;12.93;;;11.63;;
71288;SDS011;59068;52.502;9.860;2022-08-19T07:28:51;10.77;;;9.67;;
71288;SDS011;59068;52.502;9.860;2022-08-19T07:31:18;12.53;;;11.37;;
71288;SDS011;59068;52.502;9.860;2022-08-19T07:33:45;12.57;;;10.77;;
71288;SDS011;59068;52.502;9.860;2022-08-19T07:36:12;11.87;;;10.60;;
71288;SDS011;59068;52.502;9.860;2022-08-19T07:38:42;11.90;;;10.73;;
71288;SDS011;59068;52.502;9.860;2022-08-19T07:41:14;12.10;;;10.63;;
71288;SDS011;59068;52.502;9.860;2022-08-19T07:43:44;12.27;;;10.63;;
71288;SDS011;59068;52.502;9.860;2022-08-19T07:46:10;13.87;;;11.70;;
71288;SDS011;59068;52.502;9.860;2022-08-19T07:48:38;12.93;;;10.90;;
71288;SDS011;59068;52.502;9.860;2022-08-19T07:51:04;14.03;;;12.67;;
71288;SDS011;59068;52.502;9.860;2022-08-19T07:53:32;14.47;;;12.00;;
71288;SDS011;59068;52.502;9.860;2022-08-19T07:55:58;13.17;;;11.93;;
71288;SDS011;59068;52.502;9.860;2022-08-19T07:58:30;13.73;;;11.80;;
71288;SDS011;59068;52.502;9.860;2022-08-19T08:00:57;11.70;;;10.13;;
71288;SDS011;59068;52.502;9.860;2022-08-19T08:03:23;10.07;;;9.10;;
71288;SDS011;59068;52.502;9.860;2022-08-19T08:06:07;11.60;;;10.37;;
71288;SDS011;59068;52.502;9.860;2022-08-19T08:08:52;11.23;;;10.17;;
71288;SDS011;59068;52.502;9.860;2022-08-19T08:11:36;12.13;;;9.67;;
71288;SDS011;59068;52.502;9.860;2022-08-19T08:14:02;10.67;;;9.60;;
71288;SDS011;59068;52.502;9.860;2022-08-19T08:16:30;10.07;;;9.03;;
71288;SDS011;59068;52.502;9.860;2022-08-19T08:18:59;10.00;;;9.00;;
71288;SDS011;59068;52.502;9.860;2022-08-19T08:21:25;10.43;;;9.43;;
71288;SDS011;59068;52.502;9.860;2022-08-19T08:23:50;9.60;;;8.67;;
71288;SDS011;59068;52.502;9.860;2022-08-19T08:26:17;9.83;;;8.53;;
71288;SDS011;59068;52.502;9.860;2022-08-19T08:28:43;9.53;;;8.77;;
71288;SDS011;59068;52.502;9.860;2022-08-19T08:31:08;10.33;;;9.33;;
71288;SDS011;59068;52.502;9.860;2022-08-19T08:33:34;9.87;;;8.93;;
71288;SDS011;59068;52.502;9.860;2022-08-19T08:35:59;8.57;;;7.77;;
71288;SDS011;59068;52.502;9.860;2022-08-19T08:38:30;7.90;;;7.10;;
71288;SDS011;59068;52.502;9.860;2022-08-19T08:40:58;8.40;;;7.50;;
71288;SDS011;59068;52.502;9.860;2022-08-19T08:43:38;9.20;;;8.30;;
71288;SDS011;59068;52.502;9.860;2022-08-19T08:48:49;8.53;;;7.83;;
71288;SDS011;59068;52.502;9.860;2022-08-19T08:51:20;9.60;;;8.63;;
71288;SDS011;59068;52.502;9.860;2022-08-19T08:53:52;9.03;;;8.27;;
71288;SDS011;59068;52.502;9.860;2022-08-19T08:56:19;9.13;;;7.67;;
71288;SDS011;59068;52.502;9.860;2022-08-19T08:58:47;10.00;;;9.00;;
71288;SDS011;59068;52.502;9.860;2022-08-19T09:01:17;8.70;;;7.97;;
71288;SDS011;59068;52.502;9.860;2022-08-19T09:03:42;8.80;;;8.00;;
71288;SDS011;59068;52.502;9.860;2022-08-19T09:11:49;8.20;;;7.40;;
71288;SDS011;59068;52.502;9.860;2022-08-19T09:14:31;7.43;;;6.73;;
71288;SDS011;59068;52.502;9.860;2022-08-19T09:16:59;6.60;;;6.10;;
71288;SDS011;59068;52.502;9.860;2022-08-19T09:19:28;7.07;;;6.47;;
71288;SDS011;59068;52.502;9.860;2022-08-19T09:21:54;6.43;;;5.93;;
71288;SDS011;59068;52.502;9.860;2022-08-19T09:24:19;7.60;;;7.00;;
71288;SDS011;59068;52.502;9.860;2022-08-19T09:26:44;7.30;;;6.70;;
71288;SDS011;59068;52.502;9.860;2022-08-19T09:29:10;6.93;;;6.27;;
71288;SDS011;59068;52.502;9.860;2022-08-19T09:31:36;6.93;;;6.23;;
71288;SDS011;59068;52.502;9.860;2022-08-19T09:34:02;6.80;;;6.20;;
71288;SDS011;59068;52.502;9.860;2022-08-19T09:36:29;6.10;;;5.50;;
71288;SDS011;59068;52.502;9.860;2022-08-19T09:38:57;8.17;;;6.30;;
71288;SDS011;59068;52.502;9.860;2022-08-19T09:41:25;6.37;;;5.87;;
71288;SDS011;59068;52.502;9.860;2022-08-19T09:43:51;7.20;;;6.60;;
71288;SDS011;59068;52.502;9.860;2022-08-19T09:46:20;6.60;;;6.10;;
71288;SDS011;59068;52.502;9.860;2022-08-19T09:48:47;5.77;;;5.27;;
71288;SDS011;59068;52.502;9.860;2022-08-19T09:51:14;6.50;;;5.73;;
71288;SDS011;59068;52.502;9.860;2022-08-19T09:53:43;5.87;;;5.40;;
71288;SDS011;59068;52.502;9.860;2022-08-19T09:56:09;6.17;;;5.67;;
71288;SDS011;59068;52.502;9.860;2022-08-19T09:58:35;7.13;;;6.50;;
71288;SDS011;59068;52.502;9.860;2022-08-19T10:01:02;5.83;;;5.33;;
71288;SDS011;59068;52.502;9.860;2022-08-19T10:03:29;5.17;;;4.73;;
71288;SDS011;59068;52.502;9.860;2022-08-19T10:06:00;6.23;;;5.73;;
71288;SDS011;59068;52.502;9.860;2022-08-19T10:08:34;5.47;;;5.07;;
71288;SDS011;59068;52.502;9.860;2022-08-19T10:11:01;6.67;;;6.10;;
71288;SDS011;59068;52.502;9.860;2022-08-19T10:13:29;5.27;;;4.87;;
71288;SDS011;59068;52.502;9.860;2022-08-19T10:16:01;6.90;;;6.20;;
71288;SDS011;59068;52.502;9.860;2022-08-19T10:18:31;5.40;;;4.90;;
71288;SDS011;59068;52.502;9.860;2022-08-19T10:21:03;5.10;;;4.80;;
71288;SDS011;59068;52.502;9.860;2022-08-19T10:23:33;5.93;;;5.13;;
71288;SDS011;59068;52.502;9.860;2022-08-19T10:26:02;5.47;;;4.97;;
71288;SDS011;59068;52.502;9.860;2022-08-19T10:28:30;5.30;;;4.80;;
71288;SDS011;59068;52.502;9.860;2022-08-19T10:30:57;5.10;;;4.60;;
71288;SDS011;59068;52.502;9.860;2022-08-19T10:33:22;4.83;;;4.43;;
71288;SDS011;59068;52.502;9.860;2022-08-19T10:35:49;4.50;;;4.10;;
71288;SDS011;59068;52.502;9.860;2022-08-19T10:38:24;4.20;;;3.80;;
71288;SDS011;59068;52.502;9.860;2022-08-19T10:40:50;4.10;;;3.70;;
71288;SDS011;59068;52.502;9.860;2022-08-19T10:43:15;4.43;;;4.07;;
71288;SDS011;59068;52.502;9.860;2022-08-19T10:45:41;5.17;;;4.70;;
71288;SDS011;59068;52.502;9.860;2022-08-19T10:48:07;4.20;;;3.90;;
71288;SDS011;59068;52.502;9.860;2022-08-19T10:50:32;4.33;;;3.93;;
71288;SDS011;59068;52.502;9.860;2022-08-19T10:53:16;4.80;;;4.23;;
71288;SDS011;59068;52.502;9.860;2022-08-19T10:55:44;4.93;;;4.53;;
71288;SDS011;59068;52.502;9.860;2022-08-19T10:58:28;4.50;;;4.20;;
71288;SDS011;59068;52.502;9.860;2022-08-19T11:00:54;4.67;;;4.23;;
71288;SDS011;59068;52.502;9.860;2022-08-19T11:03:21;4.60;;;4.20;;
71288;SDS011;59068;52.502;9.860;2022-08-19T11:05:56;4.27;;;3.87;;
71288;SDS011;59068;52.502;9.860;2022-08-19T11:08:24;5.10;;;4.57;;
71288;SDS011;59068;52.502;9.860;2022-08-19T11:10:52;4.30;;;3.90;;
71288;SDS011;59068;52.502;9.860;2022-08-19T11:13:21;4.10;;;3.70;;
71288;SDS011;59068;52.502;9.860;2022-08-19T11:15:55;4.17;;;3.87;;
71288;SDS011;59068;52.502;9.860;2022-08-19T11:18:21;3.90;;;3.60;;
71288;SDS011;59068;52.502;9.860;2022-08-19T11:20:47;5.20;;;3.20;;
71288;SDS011;59068;52.502;9.860;2022-08-19T11:23:12;3.80;;;3.50;;
71288;SDS011;59068;52.502;9.860;2022-08-19T11:25:38;3.27;;;3.03;;
71288;SDS011;59068;52.502;9.860;2022-08-19T11:28:04;4.30;;;3.47;;
71288;SDS011;59068;52.502;9.860;2022-08-19T11:30:30;3.37;;;3.03;;
71288;SDS011;59068;52.502;9.860;2022-08-19T11:32:55;3.70;;;3.50;;
71288;SDS011;59068;52.502;9.860;2022-08-19T11:35:20;4.10;;;3.70;;
71288;SDS011;59068;52.502;9.860;2022-08-19T11:37:48;3.70;;;3.50;;
71288;SDS011;59068;52.502;9.860;2022-08-19T11:40:13;4.10;;;3.50;;
71288;SDS011;59068;52.502;9.860;2022-08-19T11:42:39;4.10;;;3.37;;
71288;SDS011;59068;52.502;9.860;2022-08-19T11:45:20;3.40;;;3.20;;
71288;SDS011;59068;52.502;9.860;2022-08-19T11:47:46;4.20;;;3.80;;
71288;SDS011;59068;52.502;9.860;2022-08-19T11:50:12;4.00;;;3.70;;
71288;SDS011;59068;52.502;9.860;2022-08-19T11:52:39;4.20;;;3.47;;
71288;SDS011;59068;52.502;9.860;2022-08-19T11:55:04;3.33;;;3.07;;
71288;SDS011;59068;52.502;9.860;2022-08-19T11:57:30;3.03;;;2.83;;
71288;SDS011;59068;52.502;9.860;2022-08-19T11:59:56;2.93;;;2.73;;
71288;SDS011;59068;52.502;9.860;2022-08-19T12:02:21;3.47;;;3.27;;
71288;SDS011;59068;52.502;9.860;2022-08-19T12:04:48;3.30;;;3.10;;
71288;SDS011;59068;52.502;9.860;2022-08-19T12:07:13;3.63;;;2.80;;
71288;SDS011;59068;52.502;9.860;2022-08-19T12:09:39;4.00;;;3.70;;
71288;SDS011;59068;52.502;9.860;2022-08-19T12:12:05;2.87;;;2.67;;
71288;SDS011;59068;52.502;9.860;2022-08-19T12:14:30;2.90;;;2.70;;
71288;SDS011;59068;52.502;9.860;2022-08-19T12:16:57;2.40;;;2.20;;
71288;SDS011;59068;52.502;9.860;2022-08-19T12:19:22;3.00;;;2.80;;
71288;SDS011;59068;52.502;9.860;2022-08-19T12:21:49;2.97;;;2.77;;
71288;SDS011;59068;52.502;9.860;2022-08-19T12:24:15;3.10;;;2.80;;
71288;SDS011;59068;52.502;9.860;2022-08-19T12:26:45;3.13;;;2.67;;
71288;SDS011;59068;52.502;9.860;2022-08-19T12:29:10;3.13;;;2.90;;
71288;SDS011;59068;52.502;9.860;2022-08-19T12:31:36;3.90;;;2.63;;
71288;SDS011;59068;52.502;9.860;2022-08-19T12:34:01;3.00;;;2.80;;
71288;SDS011;59068;52.502;9.860;2022-08-19T12:36:27;4.50;;;3.40;;
71288;SDS011;59068;52.502;9.860;2022-08-19T12:38:52;3.57;;;3.37;;
71288;SDS011;59068;52.502;9.860;2022-08-19T12:41:18;3.13;;;2.87;;
71288;SDS011;59068;52.502;9.860;2022-08-19T12:43:44;3.50;;;3.20;;
71288;SDS011;59068;52.502;9.860;2022-08-19T12:46:10;2.90;;;2.70;;
71288;SDS011;59068;52.502;9.860;2022-08-19T12:48:36;3.53;;;2.63;;
71288;SDS011;59068;52.502;9.860;2022-08-19T12:51:06;3.57;;;3.27;;
71288;SDS011;59068;52.502;9.860;2022-08-19T12:53:32;3.10;;;2.73;;
71288;SDS011;59068;52.502;9.860;2022-08-19T12:55:58;3.30;;;3.00;;
71288;SDS011;59068;52.502;9.860;2022-08-19T12:58:24;3.67;;;2.80;;
71288;SDS011;59068;52.502;9.860;2022-08-19T13:00:50;2.73;;;2.60;;
71288;SDS011;59068;52.502;9.860;2022-08-19T13:03:16;3.20;;;2.90;;
71288;SDS011;59068;52.502;9.860;2022-08-19T13:05:41;2.80;;;2.70;;
71288;SDS011;59068;52.502;9.860;2022-08-19T13:08:07;3.70;;;3.40;;
71288;SDS011;59068;52.502;9.860;2022-08-19T13:10:33;3.27;;;3.07;;
71288;SDS011;59068;52.502;9.860;2022-08-19T13:13:00;2.57;;;2.37;;
71288;SDS011;59068;52.502;9.860;2022-08-19T13:15:32;2.77;;;2.57;;
71288;SDS011;59068;52.502;9.860;2022-08-19T13:17:58;3.10;;;2.90;;
71288;SDS011;59068;52.502;9.860;2022-08-19T13:20:24;3.57;;;2.33;;
71288;SDS011;59068;52.502;9.860;2022-08-19T13:22:50;2.80;;;2.50;;
71288;SDS011;59068;52.502;9.860;2022-08-19T13:25:16;2.50;;;2.37;;
71288;SDS011;59068;52.502;9.860;2022-08-19T13:27:44;2.90;;;2.70;;
71288;SDS011;59068;52.502;9.860;2022-08-19T13:30:10;3.50;;;2.60;;
71288;SDS011;59068;52.502;9.860;2022-08-19T13:32:55;2.60;;;2.40;;
71288;SDS011;59068;52.502;9.860;2022-08-19T13:35:41;2.47;;;2.37;;
71288;SDS011;59068;52.502;9.860;2022-08-19T13:38:14;2.30;;;2.20;;
71288;SDS011;59068;52.502;9.860;2022-08-19T13:40:45;2.40;;;2.20;;
71288;SDS011;59068;52.502;9.860;2022-08-19T13:43:11;2.50;;;2.40;;
71288;SDS011;59068;52.502;9.860;2022-08-19T13:45:36;2.63;;;2.43;;
71288;SDS011;59068;52.502;9.860;2022-08-19T13:48:03;2.27;;;2.17;;
71288;SDS011;59068;52.502;9.860;2022-08-19T13:50:34;3.53;;;2.73;;
71288;SDS011;59068;52.502;9.860;2022-08-19T13:53:03;2.33;;;2.20;;
71288;SDS011;59068;52.502;9.860;2022-08-19T13:55:29;2.20;;;2.10;;
71288;SDS011;59068;52.502;9.860;2022-08-19T13:57:57;2.47;;;2.17;;
71288;SDS011;59068;52.502;9.860;2022-08-19T14:00:25;2.50;;;2.30;;
71288;SDS011;59068;52.502;9.860;2022-08-19T14:02:52;2.97;;;2.20;;
71288;SDS011;59068;52.502;9.860;2022-08-19T14:05:19;2.10;;;2.00;;
71288;SDS011;59068;52.502;9.860;2022-08-19T14:07:45;2.40;;;2.20;;
71288;SDS011;59068;52.502;9.860;2022-08-19T14:10:11;4.80;;;2.50;;
71288;SDS011;59068;52.502;9.860;2022-08-19T14:12:37;2.27;;;2.07;;
71288;SDS011;59068;52.502;9.860;2022-08-19T14:15:03;1.80;;;1.70;;
71288;SDS011;59068;52.502;9.860;2022-08-19T14:17:30;2.70;;;2.23;;
71288;SDS011;59068;52.502;9.860;2022-08-19T14:19:56;2.37;;;2.17;;
71288;SDS011;59068;52.502;9.860;2022-08-19T14:22:32;2.03;;;1.83;;
71288;SDS011;59068;52.502;9.860;2022-08-19T14:24:57;2.00;;;1.80;;
71288;SDS011;59068;52.502;9.860;2022-08-19T14:27:23;2.43;;;1.93;;
71288;SDS011;59068;52.502;9.860;2022-08-19T14:29:50;2.37;;;2.03;;
71288;SDS011;59068;52.502;9.860;2022-08-19T14:32:16;2.33;;;1.90;;
71288;SDS011;59068;52.502;9.860;2022-08-19T14:34:41;2.33;;;2.23;;
71288;SDS011;59068;52.502;9.860;2022-08-19T14:37:06;2.50;;;2.30;;
71288;SDS011;59068;52.502;9.860;2022-08-19T14:39:34;2.20;;;2.00;;
71288;SDS011;59068;52.502;9.860;2022-08-19T14:41:59;3.17;;;2.47;;
71288;SDS011;59068;52.502;9.860;2022-08-19T14:44:25;2.13;;;2.03;;
71288;SDS011;59068;52.502;9.860;2022-08-19T14:46:50;2.80;;;2.03;;
71288;SDS011;59068;52.502;9.860;2022-08-19T14:49:16;2.00;;;1.83;;